createdAt,value
2022-10-31T00:01:34.377Z,10.80
2022-10-31T00:04:01.562Z,10.80
2022-10-31T00:06:28.454Z,10.90
2022-10-31T00:08:57.264Z,10.90
2022-10-31T00:11:24.345Z,10.90
2022-10-31T00:13:51.831Z,10.90
2022-10-31T00:16:20.790Z,10.90
2022-10-31T00:18:56.415Z,11.00
2022-10-31T00:21:23.345Z,10.90
2022-10-31T00:23:50.459Z,10.90
2022-10-31T00:26:17.202Z,10.90
2022-10-31T00:28:44.278Z,10.70
2022-10-31T00:31:12.049Z,10.50
2022-10-31T00:33:39.793Z,10.40
2022-10-31T00:36:07.209Z,10.30
2022-10-31T00:38:34.447Z,10.40
2022-10-31T00:41:01.497Z,10.30
2022-10-31T00:43:28.945Z,10.30
2022-10-31T00:45:56.007Z,10.40
2022-10-31T00:48:25.710Z,10.40
2022-10-31T00:50:54.194Z,10.40
2022-10-31T00:53:21.059Z,10.40
2022-10-31T00:55:48.343Z,10.30
2022-10-31T01:00:57.507Z,10.40
2022-10-31T01:03:48.316Z,10.40
2022-10-31T01:06:15.582Z,10.40
2022-10-31T01:08:42.293Z,10.50
2022-10-31T01:11:17.803Z,10.40
2022-10-31T01:13:44.761Z,10.40
2022-10-31T01:16:13.682Z,10.40
2022-10-31T01:18:40.495Z,10.40
2022-10-31T01:21:10.547Z,10.40
2022-10-31T01:23:37.431Z,10.50
2022-10-31T01:26:06.398Z,10.60
2022-10-31T01:28:34.031Z,10.60
2022-10-31T01:31:08.970Z,10.70
2022-10-31T01:33:36.567Z,10.70
2022-10-31T01:36:15.673Z,10.70
2022-10-31T01:38:43.322Z,10.70
2022-10-31T01:41:12.148Z,10.80
2022-10-31T01:43:55.060Z,10.80
2022-10-31T01:46:26.590Z,10.80
2022-10-31T01:48:54.521Z,10.90
2022-10-31T01:51:22.991Z,10.90
2022-10-31T01:53:50.102Z,10.90
2022-10-31T01:56:17.597Z,10.80
2022-10-31T01:58:44.671Z,10.80
2022-10-31T02:01:12.208Z,10.70
2022-10-31T02:03:39.377Z,10.70
2022-10-31T02:06:09.620Z,10.60
2022-10-31T02:08:36.687Z,10.60
2022-10-31T02:11:03.671Z,10.50
2022-10-31T02:13:31.272Z,10.50
2022-10-31T02:15:59.325Z,10.40
2022-10-31T02:18:29.429Z,10.40
2022-10-31T02:20:59.237Z,10.40
2022-10-31T02:24:06.102Z,10.30
2022-10-31T02:26:55.896Z,10.30
2022-10-31T02:29:38.359Z,10.40
2022-10-31T02:32:05.213Z,10.50
2022-10-31T02:34:43.239Z,10.50
2022-10-31T02:37:15.491Z,10.50
2022-10-31T02:40:24.186Z,10.60
2022-10-31T02:43:27.674Z,10.70
2022-10-31T02:46:01.936Z,10.70
2022-10-31T02:48:30.559Z,10.70
2022-10-31T02:51:02.201Z,10.70
2022-10-31T02:53:36.514Z,10.60
2022-10-31T02:56:16.220Z,10.50
2022-10-31T02:58:54.468Z,10.50
2022-10-31T03:01:52.944Z,10.50
2022-10-31T03:04:41.689Z,10.50
2022-10-31T03:08:00.414Z,10.50
2022-10-31T03:10:42.535Z,10.50
2022-10-31T03:13:27.405Z,10.60
2022-10-31T03:15:57.825Z,10.50
2022-10-31T03:18:28.996Z,10.60
2022-10-31T03:21:14.604Z,10.50
2022-10-31T03:23:43.130Z,10.50
2022-10-31T03:26:11.020Z,10.50
2022-10-31T03:28:54.273Z,10.40
2022-10-31T03:31:24.062Z,10.30
2022-10-31T03:33:51.341Z,10.40
2022-10-31T03:36:18.802Z,10.30
2022-10-31T03:38:47.338Z,10.30
2022-10-31T03:41:19.635Z,10.20
2022-10-31T03:43:52.651Z,10.20
2022-10-31T03:46:19.992Z,10.20
2022-10-31T03:48:47.332Z,10.20
2022-10-31T03:51:26.019Z,10.30
2022-10-31T03:54:33.865Z,10.20
2022-10-31T03:57:15.204Z,10.40
2022-10-31T04:00:04.924Z,10.40
2022-10-31T04:02:35.808Z,10.40
2022-10-31T04:05:02.765Z,10.50
2022-10-31T04:07:34.704Z,10.50
2022-10-31T04:10:02.898Z,10.60
2022-10-31T04:12:30.056Z,10.60
2022-10-31T04:15:16.825Z,10.70
2022-10-31T04:17:43.824Z,10.70
2022-10-31T04:20:12.395Z,10.70
2022-10-31T04:22:40.818Z,10.70
2022-10-31T04:25:10.321Z,10.70
2022-10-31T04:27:38.609Z,10.70
2022-10-31T04:30:09.580Z,10.80
2022-10-31T04:32:40.414Z,10.80
2022-10-31T04:35:07.899Z,10.80
2022-10-31T04:37:35.410Z,10.90
2022-10-31T04:40:03.653Z,10.90
2022-10-31T04:43:05.781Z,10.90
2022-10-31T04:45:32.910Z,10.80
2022-10-31T04:48:01.013Z,10.60
2022-10-31T04:50:30.950Z,10.60
2022-10-31T04:52:57.713Z,10.60
2022-10-31T04:55:28.558Z,10.70
2022-10-31T04:58:14.545Z,10.80
2022-10-31T05:00:42.210Z,10.80
2022-10-31T05:03:09.811Z,10.80
2022-10-31T05:05:37.374Z,10.80
2022-10-31T05:08:05.039Z,10.80
2022-10-31T05:10:33.291Z,10.80
2022-10-31T05:13:03.684Z,10.90
2022-10-31T05:15:52.192Z,10.90
2022-10-31T05:18:19.349Z,10.80
2022-10-31T05:21:15.940Z,10.90
2022-10-31T05:23:52.193Z,10.90
2022-10-31T05:26:20.970Z,10.90
2022-10-31T05:28:48.734Z,10.90
2022-10-31T05:31:16.549Z,10.80
2022-10-31T05:33:45.154Z,10.80
2022-10-31T05:36:48.586Z,10.90
2022-10-31T05:39:17.097Z,10.90
2022-10-31T05:41:48.168Z,10.90
2022-10-31T05:44:28.536Z,10.90
2022-10-31T05:47:14.409Z,11.00
2022-10-31T05:49:56.392Z,11.00
2022-10-31T05:52:43.889Z,11.00
2022-10-31T05:55:26.494Z,10.90
2022-10-31T05:58:04.489Z,10.90
2022-10-31T06:00:32.919Z,10.90
2022-10-31T06:05:43.174Z,10.90
2022-10-31T06:08:10.260Z,10.90
2022-10-31T06:10:39.545Z,10.90
2022-10-31T06:13:07.521Z,10.90
2022-10-31T06:15:38.946Z,10.90
2022-10-31T06:18:09.201Z,10.90
2022-10-31T06:21:12.459Z,10.90
2022-10-31T06:23:42.061Z,10.90
2022-10-31T06:26:32.936Z,10.90
2022-10-31T06:29:04.016Z,10.80
2022-10-31T06:31:52.487Z,10.70
2022-10-31T06:34:20.038Z,10.70
2022-10-31T06:36:47.898Z,10.70
2022-10-31T06:39:15.833Z,10.70
2022-10-31T06:41:43.009Z,10.80
2022-10-31T06:44:11.239Z,10.80
2022-10-31T06:46:56.200Z,10.90
2022-10-31T06:49:46.331Z,10.80
2022-10-31T06:52:16.705Z,10.80
2022-10-31T06:54:44.116Z,10.90
2022-10-31T06:57:11.720Z,10.90
2022-10-31T06:59:39.754Z,10.80
2022-10-31T07:02:12.512Z,10.70
2022-10-31T07:04:42.681Z,10.70
2022-10-31T07:07:12.934Z,10.70
2022-10-31T07:09:40.526Z,10.80
2022-10-31T07:12:09.478Z,10.80
2022-10-31T07:14:39.586Z,10.90
2022-10-31T07:17:07.059Z,11.00
2022-10-31T07:19:38.539Z,10.90
2022-10-31T07:22:05.544Z,11.00
2022-10-31T07:24:35.458Z,11.10
2022-10-31T07:27:41.758Z,11.10
2022-10-31T07:30:12.275Z,11.20
2022-10-31T07:32:43.171Z,11.20
2022-10-31T07:35:10.964Z,11.20
2022-10-31T07:37:47.550Z,11.30
2022-10-31T07:40:15.965Z,11.30
2022-10-31T07:42:53.291Z,11.40
2022-10-31T07:45:58.316Z,11.40
2022-10-31T07:48:44.469Z,11.40
2022-10-31T07:51:30.230Z,11.50
2022-10-31T07:56:58.017Z,11.50
2022-10-31T07:59:31.305Z,11.60
2022-10-31T08:01:58.671Z,11.60
2022-10-31T08:05:19.374Z,11.60
2022-10-31T08:08:11.055Z,11.70
2022-10-31T08:10:39.772Z,11.70
2022-10-31T08:13:08.600Z,11.80
2022-10-31T08:15:40.157Z,11.90
2022-10-31T08:18:14.969Z,11.70
2022-10-31T08:21:05.780Z,11.80
2022-10-31T08:23:32.878Z,12.00
2022-10-31T08:26:00.044Z,12.00
2022-10-31T08:28:27.068Z,12.00
2022-10-31T08:30:55.762Z,12.10
2022-10-31T08:33:40.769Z,12.10
2022-10-31T08:36:26.602Z,12.20
2022-10-31T08:39:29.347Z,12.20
2022-10-31T08:41:56.813Z,12.30
2022-10-31T08:44:24.534Z,12.30
2022-10-31T08:46:54.190Z,12.40
2022-10-31T08:49:22.989Z,12.40
2022-10-31T08:51:50.199Z,12.50
2022-10-31T08:54:18.193Z,12.60
2022-10-31T08:56:57.130Z,12.60
2022-10-31T08:59:40.745Z,12.70
2022-10-31T09:02:21.420Z,12.70
2022-10-31T09:04:50.983Z,12.80
2022-10-31T09:07:21.020Z,12.90
2022-10-31T09:09:49.230Z,13.00
2022-10-31T09:12:17.784Z,13.10
2022-10-31T09:15:16.957Z,13.10
2022-10-31T09:17:48.989Z,13.20
2022-10-31T09:20:24.464Z,13.30
2022-10-31T09:23:25.229Z,13.40
2022-10-31T09:25:53.390Z,13.40
2022-10-31T09:28:36.416Z,13.40
2022-10-31T09:31:12.410Z,13.50
2022-10-31T09:33:51.519Z,13.50
2022-10-31T09:36:37.593Z,13.60
2022-10-31T09:39:08.287Z,13.60
2022-10-31T09:42:05.607Z,13.60
2022-10-31T09:44:46.397Z,13.80
2022-10-31T09:47:57.159Z,13.90
2022-10-31T09:50:59.268Z,13.90
2022-10-31T09:53:53.992Z,14.00
2022-10-31T09:56:23.646Z,14.10
2022-10-31T09:58:56.801Z,14.20
2022-10-31T10:01:42.355Z,14.30
2022-10-31T10:04:46.886Z,14.30
2022-10-31T10:07:40.462Z,14.30
2022-10-31T10:10:52.149Z,14.40
2022-10-31T10:14:27.188Z,14.30
2022-10-31T10:17:11.297Z,14.40
2022-10-31T10:19:56.188Z,14.50
2022-10-31T10:22:32.850Z,14.50
2022-10-31T10:25:12.174Z,14.50
2022-10-31T10:27:50.558Z,14.60
2022-10-31T10:30:18.731Z,14.60
2022-10-31T10:33:20.657Z,14.70
2022-10-31T10:36:05.966Z,14.70
2022-10-31T10:38:53.427Z,14.80
2022-10-31T10:41:25.021Z,14.80
2022-10-31T10:43:54.346Z,14.80
2022-10-31T10:46:57.050Z,14.80
2022-10-31T10:49:33.003Z,14.80
2022-10-31T10:55:20.165Z,14.80
2022-10-31T10:58:00.015Z,14.80
2022-10-31T11:00:30.699Z,14.80
2022-10-31T11:02:57.935Z,14.80
2022-10-31T11:05:55.724Z,14.80
2022-10-31T11:08:27.738Z,14.80
2022-10-31T11:11:19.284Z,14.80
2022-10-31T11:13:48.574Z,14.80
2022-10-31T11:16:27.791Z,14.90
2022-10-31T11:18:55.541Z,14.90
2022-10-31T11:21:30.299Z,14.90
2022-10-31T11:24:21.208Z,14.90
2022-10-31T11:26:49.482Z,14.90
2022-10-31T11:29:18.389Z,14.90
2022-10-31T11:31:46.065Z,14.90
2022-10-31T11:34:24.704Z,14.90
2022-10-31T11:36:52.390Z,14.90
2022-10-31T11:39:23.374Z,14.90
2022-10-31T11:41:50.650Z,14.90
2022-10-31T11:44:20.453Z,14.90
2022-10-31T11:46:50.724Z,15.00
2022-10-31T11:49:26.397Z,15.10
2022-10-31T11:51:54.815Z,15.10
2022-10-31T11:54:28.010Z,15.10
2022-10-31T11:56:55.066Z,15.10
2022-10-31T11:59:30.481Z,15.10
2022-10-31T12:01:58.899Z,15.10
2022-10-31T12:04:36.374Z,15.10
2022-10-31T12:07:03.450Z,15.20
2022-10-31T12:09:31.564Z,15.10
2022-10-31T12:12:13.446Z,15.20
2022-10-31T12:14:40.379Z,15.20
2022-10-31T12:17:15.305Z,15.30
2022-10-31T12:20:01.966Z,15.30
2022-10-31T12:22:45.000Z,15.30
2022-10-31T12:25:28.121Z,15.40
2022-10-31T12:28:46.322Z,15.30
2022-10-31T12:31:34.523Z,15.40
2022-10-31T12:34:23.849Z,16.20
2022-10-31T12:37:16.471Z,17.20
2022-10-31T12:40:05.850Z,18.00
2022-10-31T12:43:00.767Z,18.60
2022-10-31T12:45:34.320Z,19.20
2022-10-31T12:48:19.037Z,19.50
2022-10-31T12:51:05.574Z,19.90
2022-10-31T12:53:42.729Z,20.30
2022-10-31T12:56:45.569Z,20.20
2022-10-31T12:59:33.979Z,19.70
2022-10-31T13:02:21.271Z,19.50
2022-10-31T13:04:52.727Z,18.90
2022-10-31T13:07:24.528Z,18.40
2022-10-31T13:09:55.390Z,18.00
2022-10-31T13:12:22.373Z,17.70
2022-10-31T13:14:56.809Z,17.40
2022-10-31T13:17:23.957Z,17.30
2022-10-31T13:19:50.713Z,17.30
2022-10-31T13:22:18.594Z,17.20
2022-10-31T13:24:48.268Z,17.30
2022-10-31T13:27:25.040Z,17.30
2022-10-31T13:29:59.932Z,17.30
2022-10-31T13:32:27.620Z,17.40
2022-10-31T13:34:54.971Z,17.40
2022-10-31T13:37:38.396Z,17.30
2022-10-31T13:40:05.069Z,17.20
2022-10-31T13:42:48.485Z,17.00
2022-10-31T13:45:15.829Z,16.90
2022-10-31T13:47:42.939Z,16.90
2022-10-31T13:50:19.221Z,16.90
2022-10-31T13:52:46.368Z,16.90
2022-10-31T13:55:38.701Z,16.90
2022-10-31T13:58:25.286Z,16.90
2022-10-31T14:01:07.647Z,16.90
2022-10-31T14:04:02.091Z,16.80
2022-10-31T14:06:21.884Z,16.80
2022-10-31T14:08:49.588Z,16.80
2022-10-31T14:11:31.576Z,16.80
2022-10-31T14:14:01.211Z,16.80
2022-10-31T14:16:29.036Z,16.80
2022-10-31T14:19:02.821Z,16.80
2022-10-31T14:21:30.728Z,16.90
2022-10-31T14:23:57.423Z,16.90
2022-10-31T14:26:24.049Z,17.00
2022-10-31T14:28:51.222Z,17.00
2022-10-31T14:31:26.925Z,17.00
2022-10-31T14:33:53.909Z,17.00
2022-10-31T14:36:30.440Z,17.00
2022-10-31T14:39:12.581Z,17.10
2022-10-31T14:41:52.732Z,17.00
2022-10-31T14:44:31.161Z,17.00
2022-10-31T14:47:00.793Z,17.00
2022-10-31T14:49:27.612Z,17.10
2022-10-31T14:51:54.614Z,17.00
2022-10-31T14:54:27.640Z,17.00
2022-10-31T14:56:54.717Z,16.90
2022-10-31T14:59:23.639Z,16.90
2022-10-31T15:02:00.834Z,16.90
2022-10-31T15:04:28.563Z,16.80
2022-10-31T15:07:00.544Z,16.80
2022-10-31T15:09:31.583Z,16.80
2022-10-31T15:12:03.713Z,16.70
2022-10-31T15:14:31.338Z,16.70
2022-10-31T15:16:58.291Z,16.60
2022-10-31T15:19:25.581Z,16.60
2022-10-31T15:21:53.333Z,16.50
2022-10-31T15:24:20.030Z,16.40
2022-10-31T15:26:47.445Z,16.40
2022-10-31T15:29:15.269Z,16.30
2022-10-31T15:31:55.123Z,16.30
2022-10-31T15:34:23.274Z,16.20
2022-10-31T15:36:51.332Z,16.10
2022-10-31T15:39:18.173Z,16.10
2022-10-31T15:41:55.611Z,16.00
2022-10-31T15:44:29.577Z,16.00
2022-10-31T15:47:00.432Z,15.90
2022-10-31T15:49:27.159Z,15.90
2022-10-31T15:51:54.741Z,15.80
2022-10-31T15:54:21.992Z,15.80
2022-10-31T15:56:49.222Z,15.70
2022-10-31T15:59:21.009Z,15.70
2022-10-31T16:02:02.137Z,15.60
2022-10-31T16:04:29.580Z,15.60
2022-10-31T16:07:21.784Z,15.60
2022-10-31T16:09:51.115Z,15.50
2022-10-31T16:12:21.560Z,15.50
2022-10-31T16:14:50.169Z,15.40
2022-10-31T16:17:19.029Z,15.40
2022-10-31T16:19:50.248Z,15.30
2022-10-31T16:22:21.165Z,15.30
2022-10-31T16:24:59.079Z,15.20
2022-10-31T16:27:32.360Z,15.20
2022-10-31T16:30:02.383Z,15.10
2022-10-31T16:32:30.790Z,15.10
2022-10-31T16:35:00.461Z,15.00
2022-10-31T16:37:27.555Z,15.00
2022-10-31T16:39:55.199Z,14.90
2022-10-31T16:42:22.598Z,14.80
2022-10-31T16:44:50.003Z,14.80
2022-10-31T16:47:17.439Z,14.70
2022-10-31T16:49:44.982Z,14.70
2022-10-31T16:52:12.436Z,14.70
2022-10-31T16:54:40.030Z,14.60
2022-10-31T16:57:06.781Z,14.60
2022-10-31T16:59:36.773Z,14.60
2022-10-31T17:02:03.983Z,14.50
2022-10-31T17:04:31.167Z,14.40
2022-10-31T17:06:58.582Z,14.40
2022-10-31T17:09:26.839Z,14.40
2022-10-31T17:11:57.270Z,14.30
2022-10-31T17:14:24.180Z,14.30
2022-10-31T17:16:51.837Z,14.20
2022-10-31T17:19:18.509Z,14.30
2022-10-31T17:21:45.545Z,14.20
2022-10-31T17:24:13.959Z,14.20
2022-10-31T17:26:41.010Z,14.20
2022-10-31T17:29:08.112Z,14.10
2022-10-31T17:31:39.324Z,14.20
2022-10-31T17:34:07.105Z,14.10
2022-10-31T17:36:34.171Z,14.10
2022-10-31T17:39:03.240Z,14.10
2022-10-31T17:41:30.345Z,14.00
2022-10-31T17:43:58.198Z,14.00
2022-10-31T17:46:25.216Z,14.00
2022-10-31T17:48:51.926Z,14.00
2022-10-31T17:51:19.380Z,14.00
2022-10-31T17:53:46.814Z,14.00
2022-10-31T17:56:16.365Z,14.10
2022-10-31T17:58:44.010Z,14.00
2022-10-31T18:01:15.599Z,14.00
2022-10-31T18:03:43.226Z,14.00
2022-10-31T18:06:10.481Z,14.00
2022-10-31T18:08:39.371Z,14.00
2022-10-31T18:11:09.432Z,13.90
2022-10-31T18:13:36.707Z,13.90
2022-10-31T18:16:27.346Z,13.90
2022-10-31T18:18:56.213Z,13.90
2022-10-31T18:21:24.002Z,13.90
2022-10-31T18:23:55.291Z,13.90
2022-10-31T18:26:22.927Z,13.90
2022-10-31T18:28:49.970Z,13.90
2022-10-31T18:31:17.361Z,13.90
2022-10-31T18:33:44.680Z,13.90
2022-10-31T18:36:11.955Z,13.90
2022-10-31T18:38:40.216Z,14.00
2022-10-31T18:41:07.638Z,14.00
2022-10-31T18:43:34.308Z,14.00
2022-10-31T18:46:02.937Z,14.00
2022-10-31T18:48:31.321Z,14.00
2022-10-31T18:51:02.444Z,14.10
2022-10-31T18:53:29.857Z,14.00
2022-10-31T18:55:57.074Z,14.00
2022-10-31T18:58:24.795Z,14.00
2022-10-31T19:00:52.369Z,14.00
2022-10-31T19:03:24.884Z,14.10
2022-10-31T19:06:01.123Z,14.00
2022-10-31T19:08:30.303Z,14.10
2022-10-31T19:11:03.686Z,14.10
2022-10-31T19:13:33.047Z,14.10
2022-10-31T19:16:11.125Z,14.10
2022-10-31T19:18:41.520Z,14.10
2022-10-31T19:21:10.166Z,14.10
2022-10-31T19:23:38.818Z,14.10
2022-10-31T19:26:06.110Z,14.10
2022-10-31T19:28:33.860Z,14.10
2022-10-31T19:31:01.077Z,14.10
2022-10-31T19:33:34.843Z,14.20
2022-10-31T19:36:08.317Z,14.10
2022-10-31T19:38:36.526Z,14.10
2022-10-31T19:41:11.590Z,14.10
2022-10-31T19:43:38.383Z,14.00
2022-10-31T19:51:52.155Z,13.90
2022-10-31T19:54:19.088Z,13.90
2022-10-31T19:56:45.822Z,13.80
2022-10-31T19:59:12.545Z,13.80
2022-10-31T20:01:39.781Z,13.70
2022-10-31T20:04:07.889Z,13.70
2022-10-31T20:06:42.767Z,13.70
2022-10-31T20:09:13.457Z,13.70
2022-10-31T20:11:40.777Z,13.70
2022-10-31T20:14:07.846Z,13.70
2022-10-31T20:16:34.636Z,13.70
2022-10-31T20:19:01.320Z,13.70
2022-10-31T20:21:30.129Z,13.70
2022-10-31T20:24:04.803Z,13.70
2022-10-31T20:26:31.683Z,13.70
2022-10-31T20:28:58.979Z,13.70
2022-10-31T20:31:27.919Z,13.80
2022-10-31T20:33:55.667Z,13.70
2022-10-31T20:36:23.237Z,13.80
2022-10-31T20:38:50.615Z,13.80
2022-10-31T20:41:17.390Z,13.90
2022-10-31T20:43:44.365Z,13.90
2022-10-31T20:46:16.628Z,14.00
2022-10-31T20:48:43.467Z,14.00
2022-10-31T20:51:13.457Z,14.00
2022-10-31T20:53:40.269Z,14.10
2022-10-31T20:56:08.891Z,14.10
2022-10-31T20:58:36.184Z,14.10
2022-10-31T21:01:03.215Z,14.10
2022-10-31T21:03:30.047Z,14.20
2022-10-31T21:06:00.592Z,14.10
2022-10-31T21:08:28.953Z,14.20
2022-10-31T21:10:55.682Z,14.20
2022-10-31T21:13:22.567Z,14.20
2022-10-31T21:16:01.187Z,14.10
2022-10-31T21:18:27.946Z,14.10
2022-10-31T21:20:54.656Z,14.20
2022-10-31T21:23:21.368Z,14.20
2022-10-31T21:25:48.009Z,14.20
2022-10-31T21:28:14.835Z,14.20
2022-10-31T21:30:47.762Z,14.30
2022-10-31T21:33:14.546Z,14.30
2022-10-31T21:35:41.912Z,14.30
2022-10-31T21:38:09.503Z,14.40
2022-10-31T21:40:36.200Z,14.50
2022-10-31T21:43:03.525Z,14.50
2022-10-31T21:45:30.926Z,14.50
2022-10-31T21:47:57.614Z,14.60
2022-10-31T21:50:24.323Z,14.70
2022-10-31T21:52:51.032Z,14.60
2022-10-31T21:55:17.744Z,14.60
2022-10-31T21:57:44.387Z,14.70
2022-10-31T22:00:11.464Z,14.70
2022-10-31T22:02:38.109Z,14.70
2022-10-31T22:05:05.284Z,14.80
2022-10-31T22:07:34.962Z,15.20
2022-10-31T22:10:01.609Z,15.40
2022-10-31T22:12:28.363Z,15.50
2022-10-31T22:14:55.301Z,15.60
2022-10-31T22:17:22.305Z,15.50
2022-10-31T22:19:48.973Z,15.30
2022-10-31T22:22:15.624Z,15.30
2022-10-31T22:24:42.371Z,15.20
2022-10-31T22:27:09.003Z,15.00
2022-10-31T22:29:37.419Z,14.90
2022-10-31T22:32:04.151Z,14.70
2022-10-31T22:34:30.813Z,14.60
2022-10-31T22:36:58.660Z,14.60
2022-10-31T22:39:25.433Z,14.50
2022-10-31T22:41:52.150Z,14.40
2022-10-31T22:44:18.977Z,14.30
2022-10-31T22:46:45.665Z,14.30
2022-10-31T22:49:16.347Z,14.30
2022-10-31T22:51:43.370Z,14.20
2022-10-31T22:54:14.412Z,14.20
2022-10-31T22:56:41.265Z,14.10
2022-10-31T22:59:08.055Z,14.10
2022-10-31T23:01:34.926Z,14.10
2022-10-31T23:04:01.883Z,14.10
2022-10-31T23:06:32.360Z,14.10
2022-10-31T23:09:03.167Z,14.10
2022-10-31T23:11:34.574Z,14.10
2022-10-31T23:14:09.288Z,14.10
2022-10-31T23:16:36.786Z,14.20
2022-10-31T23:19:07.660Z,14.20
2022-10-31T23:21:54.346Z,14.20
2022-10-31T23:24:37.859Z,14.30
2022-10-31T23:27:28.731Z,14.30
2022-10-31T23:29:56.776Z,14.20
2022-10-31T23:32:31.411Z,14.20
2022-10-31T23:35:02.531Z,14.30
2022-10-31T23:37:30.612Z,14.30
2022-10-31T23:39:57.484Z,14.30
2022-10-31T23:42:25.476Z,14.30
2022-10-31T23:44:52.231Z,14.30
2022-10-31T23:47:19.026Z,14.30
2022-10-31T23:49:45.823Z,14.30
2022-10-31T23:52:12.742Z,14.30
2022-10-31T23:54:39.655Z,14.30
2022-10-31T23:57:06.550Z,14.30
2022-10-31T23:59:33.232Z,14.30
